International Virtual Aviation Organisation

Eastern Europe and Northern Asia MCD

 
UIII 110400Z 30010G15MPS CAVOK 01/M14 Q1034 R30/60D NOSIG RMK QFE730/0974
QNH:(hPa/inHg/mmHg)1034 / 30.53 / 776
QFE:(hPa/inHg/mmHg)972 / 28.69 / 729
Temperature1
Dew Point-14
Visibility> 10000
WeatherCAVOK
Cloud Cover
Transition Height1100 m./5300 ft.
Transition LevelFL60
SQUAWK